createdAt,value
2018-10-17T00:00:21.864Z,8.68
2018-10-17T00:03:26.180Z,9.27
2018-10-17T00:06:30.502Z,8.30
2018-10-17T00:09:34.811Z,8.45
2018-10-17T00:12:39.736Z,8.47
2018-10-17T00:15:44.113Z,9.23
2018-10-17T00:18:48.423Z,9.47
2018-10-17T00:21:52.747Z,8.80
2018-10-17T00:24:57.101Z,8.70
2018-10-17T00:28:01.711Z,8.63
2018-10-17T00:31:06.527Z,8.13
2018-10-17T00:34:10.851Z,9.07
2018-10-17T00:37:15.258Z,8.80
2018-10-17T00:40:19.758Z,8.57
2018-10-17T00:43:24.083Z,8.57
2018-10-17T00:46:28.428Z,8.70
2018-10-17T00:49:32.738Z,8.77
2018-10-17T00:52:37.128Z,7.93
2018-10-17T00:55:41.468Z,8.73
2018-10-17T00:59:11.622Z,8.88
2018-10-17T01:02:15.829Z,8.07
2018-10-17T01:05:20.133Z,8.87
2018-10-17T01:08:24.456Z,8.20
2018-10-17T01:11:29.204Z,8.03
2018-10-17T01:14:33.560Z,7.73
2018-10-17T01:17:38.911Z,8.23
2018-10-17T01:20:43.237Z,8.87
2018-10-17T01:23:47.546Z,8.53
2018-10-17T01:26:51.876Z,8.47
2018-10-17T01:29:56.203Z,8.23
2018-10-17T01:33:00.497Z,8.03
2018-10-17T01:36:04.862Z,8.07
2018-10-17T01:39:10.459Z,8.80
2018-10-17T01:42:14.728Z,8.73
2018-10-17T01:45:19.057Z,8.20
2018-10-17T01:48:23.413Z,7.87
2018-10-17T01:51:27.714Z,8.33
2018-10-17T01:54:32.009Z,8.70
2018-10-17T01:57:36.840Z,8.23
2018-10-17T02:00:41.162Z,7.63
2018-10-17T02:03:45.464Z,8.40
2018-10-17T02:06:49.759Z,8.33
2018-10-17T02:09:54.094Z,8.60
2018-10-17T02:12:58.429Z,8.53
2018-10-17T02:16:03.169Z,8.90
2018-10-17T02:19:07.505Z,7.83
2018-10-17T02:22:11.779Z,8.07
2018-10-17T02:25:16.131Z,8.50
2018-10-17T02:28:20.430Z,7.93
2018-10-17T02:31:24.806Z,7.83
2018-10-17T02:34:29.124Z,7.53
2018-10-17T02:37:33.420Z,8.50
2018-10-17T02:40:37.753Z,7.97
2018-10-17T02:43:42.081Z,7.37
2018-10-17T02:46:46.365Z,8.10
2018-10-17T02:49:50.683Z,8.47
2018-10-17T02:52:55.081Z,8.10
2018-10-17T02:55:59.336Z,8.37
2018-10-17T02:59:03.713Z,8.37
2018-10-17T03:02:07.911Z,8.27
2018-10-17T03:05:12.270Z,6.63
2018-10-17T03:08:16.529Z,7.50
2018-10-17T03:11:20.900Z,7.47
2018-10-17T03:14:25.183Z,8.23
2018-10-17T03:17:29.753Z,8.13
2018-10-17T03:20:34.085Z,7.40
2018-10-17T03:27:10.153Z,7.83
2018-10-17T03:30:14.449Z,8.10
2018-10-17T03:33:18.881Z,7.78
2018-10-17T03:36:24.205Z,7.63
2018-10-17T03:39:28.711Z,7.77
2018-10-17T03:42:32.993Z,7.83
2018-10-17T03:45:38.250Z,7.77
2018-10-17T03:48:42.706Z,8.15
2018-10-17T03:51:47.753Z,7.80
2018-10-17T03:54:53.034Z,7.80
2018-10-17T03:57:57.503Z,8.40
2018-10-17T04:01:03.155Z,7.63
2018-10-17T04:04:07.502Z,8.23
2018-10-17T04:07:12.370Z,7.83
2018-10-17T04:10:16.975Z,9.07
2018-10-17T04:13:22.355Z,7.80
2018-10-17T04:16:27.038Z,7.03
2018-10-17T04:19:32.693Z,7.47
2018-10-17T04:22:37.158Z,7.80
2018-10-17T04:25:41.423Z,8.00
2018-10-17T04:28:46.649Z,7.75
2018-10-17T04:31:51.153Z,8.57
2018-10-17T04:34:55.613Z,8.10
2018-10-17T04:38:00.153Z,7.77
2018-10-17T04:41:04.462Z,8.30
2018-10-17T04:44:10.697Z,8.00
2018-10-17T04:47:15.075Z,7.70
2018-10-17T04:50:19.606Z,7.23
2018-10-17T04:53:23.917Z,7.47
2018-10-17T04:56:28.937Z,8.47
2018-10-17T04:59:33.311Z,8.23
2018-10-17T05:02:39.660Z,7.67
2018-10-17T05:05:44.009Z,7.83
2018-10-17T05:08:48.525Z,7.23
2018-10-17T05:11:53.134Z,7.30
2018-10-17T05:14:57.575Z,8.17
2018-10-17T05:18:02.007Z,7.40
2018-10-17T05:21:06.517Z,8.20
2018-10-17T05:24:11.050Z,6.78
2018-10-17T05:27:15.530Z,7.80
2018-10-17T05:30:19.841Z,10.23
2018-10-17T05:33:24.180Z,9.03
2018-10-17T05:36:28.514Z,9.07
2018-10-17T05:39:32.867Z,7.80
2018-10-17T05:42:37.254Z,7.50
2018-10-17T05:45:41.681Z,8.30
2018-10-17T05:48:46.125Z,9.43
2018-10-17T05:51:50.457Z,10.03
2018-10-17T05:54:54.552Z,8.87
2018-10-17T05:57:59.279Z,9.50
2018-10-17T06:01:05.563Z,8.57
2018-10-17T06:04:10.989Z,8.80
2018-10-17T06:07:15.418Z,8.77
2018-10-17T06:10:19.975Z,8.50
2018-10-17T06:13:24.496Z,8.50
2018-10-17T06:16:28.924Z,8.17
2018-10-17T06:19:34.157Z,8.90
2018-10-17T06:22:39.167Z,8.85
2018-10-17T06:25:43.512Z,8.00
2018-10-17T06:28:48.085Z,8.18
2018-10-17T06:31:52.521Z,8.93
2018-10-17T06:34:56.900Z,9.33
2018-10-17T06:38:01.606Z,9.47
2018-10-17T06:41:06.644Z,9.93
2018-10-17T06:44:11.141Z,8.78
2018-10-17T06:47:15.499Z,8.27
2018-10-17T06:50:19.918Z,9.23
2018-10-17T06:53:24.336Z,8.57
2018-10-17T06:56:28.819Z,8.30
2018-10-17T06:59:33.137Z,8.07
2018-10-17T07:02:38.740Z,7.73
2018-10-17T07:05:43.241Z,7.83
2018-10-17T07:08:48.788Z,8.10
2018-10-17T07:11:53.249Z,7.77
2018-10-17T07:14:57.686Z,7.90
2018-10-17T07:18:02.179Z,7.23
2018-10-17T07:21:06.602Z,8.27
2018-10-17T07:24:11.162Z,6.83
2018-10-17T07:27:15.618Z,7.67
2018-10-17T07:30:20.184Z,6.95
2018-10-17T07:33:24.524Z,7.20
2018-10-17T07:36:28.896Z,7.60
2018-10-17T07:39:33.572Z,6.87
2018-10-17T07:42:38.988Z,7.95
2018-10-17T07:45:43.336Z,6.80
2018-10-17T07:48:47.641Z,7.67
2018-10-17T07:51:51.944Z,8.07
2018-10-17T07:54:56.368Z,7.90
2018-10-17T07:58:00.874Z,7.10
2018-10-17T08:01:05.235Z,7.10
2018-10-17T08:04:09.722Z,5.50
2018-10-17T08:07:15.442Z,6.73
2018-10-17T08:10:20.385Z,6.50
2018-10-17T08:13:24.719Z,6.50
2018-10-17T08:16:29.000Z,6.33
2018-10-17T08:19:33.326Z,6.87
2018-10-17T08:22:40.203Z,6.97
2018-10-17T08:25:44.717Z,6.87
2018-10-17T08:28:49.237Z,6.37
2018-10-17T08:31:53.817Z,6.90
2018-10-17T08:34:58.145Z,7.05
2018-10-17T08:38:02.739Z,7.03
2018-10-17T08:41:06.938Z,6.50
2018-10-17T08:44:11.262Z,5.50
2018-10-17T08:47:15.694Z,6.13
2018-10-17T08:50:20.150Z,7.00
2018-10-17T08:53:24.576Z,6.43
2018-10-17T08:56:29.820Z,6.30
2018-10-17T08:59:34.353Z,6.83
2018-10-17T09:02:39.785Z,6.85
2018-10-17T09:05:44.163Z,6.80
2018-10-17T09:08:48.601Z,6.13
2018-10-17T09:11:52.984Z,6.90
2018-10-17T09:14:57.417Z,5.87
2018-10-17T09:18:01.728Z,6.37
2018-10-17T09:21:07.041Z,5.93
2018-10-17T09:24:10.996Z,5.58
2018-10-17T09:27:15.169Z,6.40
2018-10-17T09:30:19.676Z,6.23
2018-10-17T09:33:23.800Z,6.12
2018-10-17T09:36:28.076Z,5.70
2018-10-17T09:39:32.357Z,6.07
2018-10-17T09:42:36.662Z,5.93
2018-10-17T09:45:41.049Z,6.03
2018-10-17T09:48:45.447Z,6.20
2018-10-17T09:51:49.852Z,5.10
2018-10-17T09:54:54.338Z,5.17
2018-10-17T09:57:58.671Z,5.33
2018-10-17T10:01:08.341Z,5.93
2018-10-17T10:04:12.724Z,5.30
2018-10-17T10:07:17.333Z,5.23
2018-10-17T10:10:21.769Z,5.77
2018-10-17T10:13:26.141Z,5.90
2018-10-17T10:16:30.450Z,5.93
2018-10-17T10:19:34.784Z,5.93
2018-10-17T10:22:39.137Z,5.97
2018-10-17T10:25:43.461Z,5.87
2018-10-17T10:28:48.150Z,5.60
2018-10-17T10:31:52.513Z,5.67
2018-10-17T10:34:56.804Z,5.60
2018-10-17T10:38:01.222Z,5.60
2018-10-17T10:41:05.861Z,6.20
2018-10-17T10:44:10.267Z,6.13
2018-10-17T10:47:14.581Z,6.43
2018-10-17T10:50:19.041Z,5.60
2018-10-17T10:53:23.354Z,6.03
2018-10-17T10:56:27.776Z,6.30
2018-10-17T10:59:32.195Z,6.20
2018-10-17T11:02:36.394Z,6.23
2018-10-17T11:05:40.920Z,6.30
2018-10-17T11:08:45.489Z,6.73
2018-10-17T11:11:49.897Z,6.23
2018-10-17T11:14:54.375Z,6.63
2018-10-17T11:17:58.557Z,7.30
2018-10-17T11:21:02.853Z,7.07
2018-10-17T11:24:07.123Z,7.40
2018-10-17T11:27:11.666Z,6.43
2018-10-17T11:30:15.916Z,6.85
2018-10-17T11:33:20.237Z,6.87
2018-10-17T11:36:24.542Z,7.43
2018-10-17T11:39:28.822Z,6.63
2018-10-17T11:42:33.333Z,7.20
2018-10-17T11:45:40.186Z,6.90
2018-10-17T11:48:44.810Z,6.80
2018-10-17T11:51:49.109Z,6.70
2018-10-17T11:54:53.533Z,7.00
2018-10-17T11:57:58.018Z,6.62
2018-10-17T12:01:02.333Z,7.40
2018-10-17T12:04:07.010Z,7.83
2018-10-17T12:07:11.124Z,7.07
2018-10-17T12:10:16.115Z,6.93
2018-10-17T12:13:20.414Z,6.60
2018-10-17T12:16:24.953Z,6.60
2018-10-17T12:19:29.285Z,7.20
2018-10-17T12:22:33.612Z,7.47
2018-10-17T12:25:37.960Z,6.87
2018-10-17T12:28:42.431Z,6.93
2018-10-17T12:31:46.671Z,7.47
2018-10-17T12:34:51.107Z,6.87
2018-10-17T12:37:55.339Z,6.90
2018-10-17T12:40:59.848Z,7.83
2018-10-17T12:44:04.077Z,7.60
2018-10-17T12:47:08.460Z,6.70
2018-10-17T12:50:12.758Z,7.37
2018-10-17T12:53:17.119Z,6.53
2018-10-17T12:56:21.415Z,7.10
2018-10-17T12:59:25.849Z,8.47
2018-10-17T13:02:30.880Z,8.47
2018-10-17T13:05:35.558Z,7.33
2018-10-17T13:08:40.142Z,7.42
2018-10-17T13:11:44.682Z,7.20
2018-10-17T13:14:49.369Z,7.85
2018-10-17T13:17:53.977Z,7.77
2018-10-17T13:20:58.503Z,8.33
2018-10-17T13:24:03.122Z,8.20
2018-10-17T13:27:07.684Z,7.50
2018-10-17T13:30:12.117Z,7.10
2018-10-17T13:33:16.561Z,7.90
2018-10-17T13:36:20.968Z,8.00
2018-10-17T13:39:25.493Z,7.43
2018-10-17T13:42:29.932Z,8.43
2018-10-17T13:45:34.421Z,7.43
2018-10-17T13:48:38.948Z,8.03
2018-10-17T13:51:43.362Z,8.10
2018-10-17T13:54:47.796Z,8.30
2018-10-17T13:57:52.387Z,8.20
2018-10-17T14:00:56.725Z,8.43
2018-10-17T14:04:02.127Z,8.93
2018-10-17T14:07:09.319Z,7.33
2018-10-17T14:10:15.273Z,7.60
2018-10-17T14:13:23.267Z,6.90
2018-10-17T14:16:29.568Z,7.57
2018-10-17T14:19:33.948Z,8.27
2018-10-17T14:26:16.074Z,7.57
2018-10-17T14:29:20.626Z,7.43
2018-10-17T14:32:25.161Z,8.30
2018-10-17T14:35:29.491Z,7.20
2018-10-17T14:38:33.850Z,8.67
2018-10-17T14:41:38.217Z,7.73
2018-10-17T14:44:42.568Z,8.00
2018-10-17T14:47:47.019Z,7.47
2018-10-17T14:50:51.458Z,7.73
2018-10-17T14:53:55.909Z,7.77
2018-10-17T14:57:00.291Z,7.63
2018-10-17T15:00:05.744Z,7.50
2018-10-17T15:03:10.289Z,7.77
2018-10-17T15:06:14.612Z,7.60
2018-10-17T15:09:19.097Z,8.37
2018-10-17T15:12:23.440Z,8.13
2018-10-17T15:15:28.045Z,14.00
2018-10-17T15:18:32.534Z,10.10
2018-10-17T15:21:36.853Z,8.50
2018-10-17T15:28:20.231Z,8.47
2018-10-17T15:31:24.644Z,8.13
2018-10-17T15:34:28.977Z,9.57
2018-10-17T15:37:33.196Z,9.10
2018-10-17T15:40:37.710Z,9.07
2018-10-17T15:43:42.367Z,8.20
2018-10-17T15:46:46.746Z,8.00
2018-10-17T15:49:51.464Z,7.50
2018-10-17T15:52:56.117Z,6.97
2018-10-17T15:56:00.541Z,7.77
2018-10-17T15:59:05.154Z,7.27
2018-10-17T16:02:09.695Z,7.50
2018-10-17T16:05:14.326Z,9.03
2018-10-17T16:08:19.024Z,10.30
2018-10-17T16:11:23.421Z,14.53
2018-10-17T16:14:28.294Z,10.40
2018-10-17T16:17:32.874Z,9.10
2018-10-17T16:20:37.430Z,9.13
2018-10-17T16:23:41.910Z,8.47
2018-10-17T16:26:47.402Z,9.13
2018-10-17T16:29:51.981Z,10.00
2018-10-17T16:32:56.687Z,9.80
2018-10-17T16:36:01.241Z,9.73
2018-10-17T16:39:09.444Z,9.17
2018-10-17T16:42:13.807Z,9.63
2018-10-17T16:45:18.254Z,9.40
2018-10-17T16:48:22.805Z,9.67
2018-10-17T16:51:27.233Z,9.93
2018-10-17T16:54:31.645Z,10.07
2018-10-17T16:57:36.348Z,11.80
2018-10-17T17:00:40.686Z,13.13
2018-10-17T17:03:45.221Z,11.73
2018-10-17T17:06:49.674Z,12.50
2018-10-17T17:09:54.099Z,11.23
2018-10-17T17:12:58.527Z,15.67
2018-10-17T17:16:02.953Z,16.73
2018-10-17T17:19:07.377Z,15.97
2018-10-17T17:22:11.778Z,13.53
2018-10-17T17:25:16.361Z,13.90
2018-10-17T17:28:20.731Z,20.43
2018-10-17T17:31:25.149Z,23.87
2018-10-17T17:34:29.579Z,26.47
2018-10-17T17:37:34.029Z,23.30
2018-10-17T17:40:38.443Z,23.43
2018-10-17T17:43:42.845Z,21.67
2018-10-17T17:46:47.576Z,22.33
2018-10-17T17:49:51.848Z,20.03
2018-10-17T17:52:56.227Z,19.53
2018-10-17T17:56:00.564Z,15.63
2018-10-17T17:59:05.181Z,14.53
2018-10-17T18:02:09.687Z,13.60
2018-10-17T18:05:14.237Z,13.40
2018-10-17T18:08:18.806Z,12.50
2018-10-17T18:11:25.537Z,12.77
2018-10-17T18:14:29.999Z,12.27
2018-10-17T18:17:34.425Z,12.47
2018-10-17T18:20:38.801Z,12.23
2018-10-17T18:23:43.485Z,12.37
2018-10-17T18:27:18.461Z,12.27
2018-10-17T18:30:22.737Z,12.53
2018-10-17T18:33:27.258Z,10.80
2018-10-17T18:36:31.554Z,11.53
2018-10-17T18:39:35.976Z,11.23
2018-10-17T18:42:40.613Z,9.97
2018-10-17T18:45:45.595Z,10.40
2018-10-17T18:48:49.796Z,9.10
2018-10-17T18:51:54.258Z,21.40
2018-10-17T18:54:58.545Z,10.80
2018-10-17T18:58:02.852Z,17.42
2018-10-17T19:01:07.332Z,12.87
2018-10-17T19:04:11.705Z,11.67
2018-10-17T19:07:16.239Z,14.93
2018-10-17T19:10:20.830Z,12.07
2018-10-17T19:13:25.104Z,12.13
2018-10-17T19:16:29.415Z,10.43
2018-10-17T19:19:33.825Z,12.73
2018-10-17T19:22:39.286Z,11.38
2018-10-17T19:25:43.805Z,12.10
2018-10-17T19:28:48.150Z,12.03
2018-10-17T19:31:52.608Z,11.47
2018-10-17T19:34:56.915Z,11.83
2018-10-17T19:38:01.393Z,11.23
2018-10-17T19:41:05.874Z,11.07
2018-10-17T19:44:10.289Z,10.57
2018-10-17T19:47:14.826Z,10.83
2018-10-17T19:50:19.225Z,11.10
2018-10-17T19:53:23.565Z,10.73
2018-10-17T19:56:27.956Z,11.57
2018-10-17T19:59:32.406Z,13.53
2018-10-17T20:02:36.956Z,12.43
2018-10-17T20:05:41.337Z,12.10
2018-10-17T20:08:45.725Z,11.37
2018-10-17T20:11:50.361Z,11.43
2018-10-17T20:14:54.840Z,10.87
2018-10-17T20:17:59.200Z,11.23
2018-10-17T20:21:03.695Z,11.23
2018-10-17T20:24:08.029Z,11.38
2018-10-17T20:27:12.553Z,12.10
2018-10-17T20:30:16.898Z,11.33
2018-10-17T20:33:21.460Z,12.27
2018-10-17T20:36:25.957Z,10.57
2018-10-17T20:39:30.345Z,12.07
2018-10-17T20:42:34.704Z,11.77
2018-10-17T20:45:39.254Z,10.53
2018-10-17T20:48:43.618Z,10.10
2018-10-17T20:51:48.177Z,10.77
2018-10-17T20:54:52.670Z,10.47
2018-10-17T20:57:57.129Z,10.93
2018-10-17T21:01:02.188Z,10.33
2018-10-17T21:04:06.832Z,10.40
2018-10-17T21:07:11.188Z,10.87
2018-10-17T21:10:15.702Z,10.77
2018-10-17T21:13:20.182Z,10.40
2018-10-17T21:16:24.470Z,10.63
2018-10-17T21:19:28.769Z,11.13
2018-10-17T21:22:33.172Z,10.53
2018-10-17T21:25:37.589Z,11.03
2018-10-17T21:28:42.000Z,11.47
2018-10-17T21:31:46.473Z,11.60
2018-10-17T21:34:51.210Z,11.67
2018-10-17T21:37:55.668Z,11.47
2018-10-17T21:40:59.935Z,10.83
2018-10-17T21:44:04.387Z,11.13
2018-10-17T21:47:08.766Z,11.03
2018-10-17T21:50:13.268Z,11.20
2018-10-17T21:53:32.321Z,9.80
2018-10-17T21:56:37.001Z,10.70
2018-10-17T21:59:41.337Z,9.80
2018-10-17T22:02:45.731Z,9.60
2018-10-17T22:05:50.176Z,10.37
2018-10-17T22:08:54.657Z,9.73
2018-10-17T22:11:58.957Z,9.67
2018-10-17T22:15:03.300Z,10.30
2018-10-17T22:18:07.634Z,10.43
2018-10-17T22:21:12.233Z,9.87
2018-10-17T22:24:16.598Z,10.80
2018-10-17T22:27:21.112Z,11.00
2018-10-17T22:30:25.560Z,10.83
2018-10-17T22:33:29.882Z,12.00
2018-10-17T22:36:34.212Z,11.70
2018-10-17T22:39:38.524Z,11.77
2018-10-17T22:42:42.919Z,11.00
2018-10-17T22:45:47.268Z,10.53
2018-10-17T22:48:51.662Z,10.77
2018-10-17T22:51:55.946Z,10.73
2018-10-17T22:55:00.257Z,10.57
2018-10-17T22:58:04.793Z,12.10
2018-10-17T23:01:09.141Z,11.70
2018-10-17T23:04:13.462Z,10.67
2018-10-17T23:07:17.744Z,10.27
2018-10-17T23:10:22.037Z,9.77
2018-10-17T23:13:26.877Z,9.50
2018-10-17T23:16:31.184Z,11.00
2018-10-17T23:19:35.483Z,9.80
2018-10-17T23:22:40.940Z,9.90
2018-10-17T23:25:45.224Z,10.07
2018-10-17T23:28:49.541Z,9.53
2018-10-17T23:31:53.875Z,8.93
2018-10-17T23:34:58.201Z,10.13
2018-10-17T23:38:02.561Z,11.00
2018-10-17T23:41:07.054Z,11.03
2018-10-17T23:44:11.548Z,9.30
2018-10-17T23:47:15.769Z,11.17
2018-10-17T23:50:20.102Z,10.47
2018-10-17T23:53:24.410Z,10.53
2018-10-17T23:56:28.728Z,10.83
2018-10-17T23:59:33.037Z,10.53
